In Rescue
 
Open Full Screen Window  High Contrast Mode
Wind Gusting 00 knots
06
May 20, 2019 1:26 PM CDT
Weather Information
Wind Direction
  010 °
Wind Speed
  06 kt (7 mph)
Wind Gust
  00 kt (0 mph)
Altimeter
30.12 in
Visibility
10 SM
Temperature
15° C
59° F
Dewpoint
00° C
32° F
Humidity
36%
1hr Rain Fall
00.00 in.
24hr Rain Fall
00.00 in.
Sky Condition
Scattered @ 6,000 ft
VFR

METAR KEVM 201826Z AUTO 01006KT 10SM SCT060 15/00 A3012 RMK AO2 T01491004

FAA Disclaimer: The data displayed is for advisory purposes only and is not to be used for flight planning or operations.